Time;durP1;ratioP1;P1;durP2;ratioP2;P2;SDS_P1;SDS_P2;PMS_P1;PMS_P2;Temp;Humidity;BMP_temperature;BMP_pressure;BME280_temperature;BME280_humidity;BME280_pressure;Samples;Min_cycle;Max_cycle;Signal;HPM_P1;HPM_P2
2022/11/26 00:00:24;;;;;;;;;;;;;;;2.19;100.00;101201.16;5575554;31;35007;-72
2022/11/26 00:03:32;;;;;;;;;;;;;;;2.21;100.00;101201.06;5589383;31;34621;-71
2022/11/26 00:06:41;;;;;;;;;;;;;;;2.14;100.00;101201.44;5575255;31;35361;-71
2022/11/26 00:09:48;;;;;;;;;;;;;;;2.28;100.00;101207.59;5589477;31;35072;-71
2022/11/26 00:12:57;;;;;;;;;;;;;;;2.28;100.00;101207.59;5589443;31;34579;-71
2022/11/26 00:16:04;;;;;;;;;;;;;;;2.19;100.00;101212.47;5589258;31;34361;-72
2022/11/26 00:19:13;;;;;;;;;;;;;;;2.28;100.00;101213.66;5589258;31;34738;-72
2022/11/26 00:22:25;;;;;;;;;;;;;;;2.25;100.00;101213.88;5589230;31;34534;-72
2022/11/26 00:25:37;;;;;;;;;;;;;;;2.24;100.00;101208.72;5589122;31;34518;-72
2022/11/26 00:28:48;;;;;;;;;;;;;;;2.30;100.00;101217.03;5575734;31;34618;-71
2022/11/26 00:31:54;;;;;;;;;;;;;;;2.25;100.00;101208.62;5589397;31;35127;-72
2022/11/26 00:35:02;;;;;;;;;;;;;;;2.23;100.00;101207.06;5575087;31;33029;-72
2022/11/26 00:38:14;;;;;;;;;;;;;;;2.19;100.00;101206.37;5589395;31;34629;-72
2022/11/26 00:41:22;;;;;;;;;;;;;;;2.19;100.00;101206.37;5575046;31;34648;-72
2022/11/26 00:44:28;;;;;;;;;;;;;;;2.21;100.00;101211.53;5574842;31;34398;-72
2022/11/26 00:47:36;;;;;;;;;;;;;;;2.37;100.00;101213.09;5590342;31;35066;-71
2022/11/26 00:50:45;;;;;;;;;;;;;;;2.33;100.00;101213.37;5591308;31;34839;-72
2022/11/26 00:53:58;;;;;;;;;;;;;;;2.36;100.00;101218.44;5591259;31;34564;-72
2022/11/26 00:57:03;;;;;;;;;;;;;;;2.34;100.00;101223.78;5577050;31;34689;-72
2022/11/26 01:00:18;;;;;;;;;;;;;;;2.29;100.00;101217.97;5591143;31;35081;-72
2022/11/26 01:03:23;;;;;;;;;;;;;;;2.30;100.00;101224.91;5591137;31;34618;-72
2022/11/26 01:06:33;;;;;;;;;;;;;;;2.40;100.00;101228.62;5591067;31;34929;-72
2022/11/26 01:09:40;;;;;;;;;;;;;;;2.33;100.00;101232.56;5591105;31;35173;-72
2022/11/26 01:12:47;;;;;;;;;;;;;;;2.45;100.00;101228.34;5591118;31;34532;-71
2022/11/26 01:15:55;;;;;;;;;;;;;;;2.48;100.00;101226.37;5590788;31;35161;-72
2022/11/26 01:19:01;;;;;;;;;;;;;;;2.27;100.00;101219.87;5591002;31;34615;-73
2022/11/26 01:22:18;;;;;;;;;;;;;;;2.35;100.00;101222.00;5591040;31;34834;-73
2022/11/26 01:25:27;;;;;;;;;;;;;;;2.30;100.00;101219.66;5590971;31;34830;-72
2022/11/26 01:28:34;;;;;;;;;;;;;;;2.28;100.00;101220.69;5590808;31;34454;-72
2022/11/26 01:31:43;;;;;;;;;;;;;;;2.36;100.00;101227.16;5590924;31;34549;-72
2022/11/26 01:34:51;;;;;;;;;;;;;;;2.25;100.00;101229.56;5590936;31;34831;-72
2022/11/26 01:37:59;;;;;;;;;;;;;;;2.36;100.00;101231.53;5590876;31;34530;-72
2022/11/26 01:41:04;;;;;;;;;;;;;;;2.46;100.00;101233.50;5590822;31;34919;-72
2022/11/26 01:44:28;;;;;;;;;;;;;;;2.39;100.00;101232.19;5576898;31;33052;-72
2022/11/26 01:47:35;;;;;;;;;;;;;;;2.62;100.00;101228.97;5576808;31;34938;-72
2022/11/26 01:50:59;;;;;;;;;;;;;;;2.52;100.00;101230.47;5590692;31;35091;-72
2022/11/26 01:54:04;;;;;;;;;;;;;;;2.50;100.00;101240.22;5590779;31;34288;-72
2022/11/26 01:57:14;;;;;;;;;;;;;;;2.45;100.00;101237.06;5577298;31;35215;-72
2022/11/26 02:00:20;;;;;;;;;;;;;;;2.52;100.00;101230.47;5590174;31;35275;-72
2022/11/26 02:03:30;;;;;;;;;;;;;;;2.36;100.00;101235.00;5590716;31;34476;-72
2022/11/26 02:06:37;;;;;;;;;;;;;;;2.52;100.00;101234.88;5590523;31;34504;-71
2022/11/26 02:09:45;;;;;;;;;;;;;;;2.53;100.00;101236.56;5590646;31;34947;-71
2022/11/26 02:12:52;;;;;;;;;;;;;;;2.44;100.00;101242.38;5590549;31;35132;-72
2022/11/26 02:16:11;;;;;;;;;;;;;;;2.42;100.00;101237.22;5590645;31;35194;-72
2022/11/26 02:19:36;;;;;;;;;;;;;;;2.39;100.00;101240.03;5590457;31;35199;-72
2022/11/26 02:22:50;;;;;;;;;;;;;;;2.36;100.00;101244.63;5590526;31;34414;-72
2022/11/26 02:26:02;;;;;;;;;;;;;;;2.36;100.00;101248.09;5577074;31;35054;-72
2022/11/26 02:29:16;;;;;;;;;;;;;;;2.46;100.00;101241.34;5590400;31;34476;-72
2022/11/26 02:32:28;;;;;;;;;;;;;;;2.38;100.00;101246.22;5577066;31;34464;-73
2022/11/26 02:35:50;;;;;;;;;;;;;;;2.26;100.00;101262.69;5590434;31;34488;-72
2022/11/26 02:38:58;;;;;;;;;;;;;;;2.19;100.00;101256.12;5590403;31;34844;-72
2022/11/26 02:42:20;;;;;;;;;;;;;;;2.06;100.00;101255.19;5576906;31;34510;-72
2022/11/26 02:45:33;;;;;;;;;;;;;;;2.13;100.00;101262.56;5590276;31;34491;-73
2022/11/26 02:48:44;;;;;;;;;;;;;;;2.12;100.00;101258.28;5577062;31;35039;-72
2022/11/26 02:51:52;;;;;;;;;;;;;;;2.14;100.00;101260.78;5590243;31;34942;-73
2022/11/26 02:55:00;;;;;;;;;;;;;;;2.13;100.00;101259.94;5590267;31;35118;-73
2022/11/26 02:58:06;;;;;;;;;;;;;;;2.08;100.00;101258.56;5576839;31;35142;-71
2022/11/26 03:01:14;;;;;;;;;;;;;;;2.07;100.00;101267.34;5590198;31;35087;-73
2022/11/26 03:04:28;;;;;;;;;;;;;;;2.10;100.00;101268.00;5576947;31;34936;-73
2022/11/26 03:07:34;;;;;;;;;;;;;;;2.21;100.00;101269.97;5576751;31;34894;-72
2022/11/26 03:10:40;;;;;;;;;;;;;;;2.17;100.00;101271.94;5589986;31;35074;-71
2022/11/26 03:13:48;;;;;;;;;;;;;;;2.11;100.00;101267.06;5590090;31;34516;-71
2022/11/26 03:16:56;;;;;;;;;;;;;;;2.08;100.00;101269.03;5589925;31;34643;-71
2022/11/26 03:20:02;;;;;;;;;;;;;;;2.07;100.00;101273.41;5576641;31;34981;-71
2022/11/26 03:23:08;;;;;;;;;;;;;;;2.15;100.00;101279.03;5576679;31;34473;-71
2022/11/26 03:26:14;;;;;;;;;;;;;;;2.14;100.00;101266.88;5589890;31;35066;-71
2022/11/26 03:29:23;;;;;;;;;;;;;;;2.08;100.00;101269.03;5589789;31;34960;-71
2022/11/26 03:32:32;;;;;;;;;;;;;;;2.07;100.00;101275.19;5589932;31;35069;-72
2022/11/26 03:35:38;;;;;;;;;;;;;;;2.09;100.00;101276.78;5589909;31;34410;-71
2022/11/26 03:38:45;;;;;;;;;;;;;;;1.99;100.00;101280.87;5589872;31;34488;-71
2022/11/26 03:41:55;;;;;;;;;;;;;;;2.11;100.00;101287.16;5589702;31;34827;-72
2022/11/26 03:45:03;;;;;;;;;;;;;;;2.08;100.00;101290.78;5589788;31;35219;-72
2022/11/26 03:48:10;;;;;;;;;;;;;;;1.97;100.00;101297.59;5589669;31;35054;-72
2022/11/26 03:51:18;;;;;;;;;;;;;;;1.98;100.00;101299.28;5589684;31;35024;-73
2022/11/26 03:54:27;;;;;;;;;;;;;;;1.88;100.00;101300.78;5589620;31;35000;-73
2022/11/26 03:57:32;;;;;;;;;;;;;;;1.99;100.00;101304.41;5589673;31;34581;-72
2022/11/26 04:00:42;;;;;;;;;;;;;;;1.87;100.00;101305.16;5589700;31;34439;-72
2022/11/26 04:03:48;;;;;;;;;;;;;;;1.73;100.00;101303.34;5589617;31;34463;-73
2022/11/26 04:06:53;;;;;;;;;;;;;;;1.74;100.00;101307.63;5589490;31;35168;-72
2022/11/26 04:10:03;;;;;;;;;;;;;;;1.76;100.00;101312.78;5576489;31;35156;-73
2022/11/26 04:13:10;;;;;;;;;;;;;;;1.76;100.00;101323.25;5589383;31;34558;-73
2022/11/26 04:16:20;;;;;;;;;;;;;;;1.74;100.00;101317.28;5589228;31;34485;-73
2022/11/26 04:19:29;;;;;;;;;;;;;;;1.72;100.00;101319.13;5575256;31;35264;-73
2022/11/26 04:22:35;;;;;;;;;;;;;;;1.77;100.00;101317.09;5588584;31;34450;-72
2022/11/26 04:25:42;;;;;;;;;;;;;;;1.77;100.00;101317.09;5589229;31;34610;-72
2022/11/26 04:28:49;;;;;;;;;;;;;;;1.84;100.00;101328.03;5588970;31;34397;-73
2022/11/26 04:31:57;;;;;;;;;;;;;;;1.72;100.00;101326.97;5589170;31;34915;-73
2022/11/26 04:35:03;;;;;;;;;;;;;;;1.69;100.00;101329.78;5575642;31;35206;-73
2022/11/26 04:38:12;;;;;;;;;;;;;;;1.78;100.00;101325.78;5588996;31;34495;-73
2022/11/26 04:41:21;;;;;;;;;;;;;;;1.61;100.00;101343.28;5588919;31;34573;-73
2022/11/26 04:44:26;;;;;;;;;;;;;;;1.60;100.00;101333.72;5575335;31;35180;-73
2022/11/26 04:47:32;;;;;;;;;;;;;;;1.64;100.00;101340.50;5588928;31;35147;-73
2022/11/26 04:50:45;;;;;;;;;;;;;;;1.65;100.00;101342.16;5574504;31;34848;-72
2022/11/26 04:53:53;;;;;;;;;;;;;;;1.69;100.00;101345.47;5588840;31;34501;-73
2022/11/26 04:57:06;;;;;;;;;;;;;;;1.82;100.00;101346.44;5588656;31;34952;-73
2022/11/26 05:00:13;;;;;;;;;;;;;;;1.82;100.00;101359.53;5574924;31;34686;-73
2022/11/26 05:03:21;;;;;;;;;;;;;;;1.89;100.00;101367.88;5588555;31;35079;-74
2022/11/26 05:06:28;;;;;;;;;;;;;;;1.90;100.00;101367.75;5574171;31;35287;-73
2022/11/26 05:09:34;;;;;;;;;;;;;;;1.81;100.00;101373.53;5588593;31;35198;-73
2022/11/26 05:12:43;;;;;;;;;;;;;;;1.81;100.00;101370.91;5588402;31;35209;-73
2022/11/26 05:15:49;;;;;;;;;;;;;;;1.67;100.00;101376.09;5588198;31;35156;-72
2022/11/26 05:18:59;;;;;;;;;;;;;;;1.74;100.00;101374.81;5574342;31;35292;-72
2022/11/26 05:22:03;;;;;;;;;;;;;;;1.71;100.00;101385.44;5588165;31;34825;-72
2022/11/26 05:25:09;;;;;;;;;;;;;;;1.89;100.00;101389.63;5574803;31;34532;-73
2022/11/26 05:28:16;;;;;;;;;;;;;;;1.79;100.00;101383.25;5587864;31;35049;-73
2022/11/26 05:31:24;;;;;;;;;;;;;;;1.81;100.00;101386.59;5587961;31;34422;-73
2022/11/26 05:34:30;;;;;;;;;;;;;;;1.82;100.00;101383.06;5589898;31;34566;-73
2022/11/26 05:37:36;;;;;;;;;;;;;;;1.80;100.00;101384.06;5590893;31;34532;-73
2022/11/26 05:40:42;;;;;;;;;;;;;;;1.97;100.00;101392.66;5577524;31;34310;-72
2022/11/26 05:43:49;;;;;;;;;;;;;;;1.79;100.00;101385.87;5577415;31;35184;-73
2022/11/26 05:46:56;;;;;;;;;;;;;;;1.83;100.00;101386.53;5590953;31;34907;-73
2022/11/26 05:50:03;;;;;;;;;;;;;;;2.00;100.00;101408.16;5576935;31;35167;-73
2022/11/26 05:53:09;;;;;;;;;;;;;;;1.88;100.00;101408.03;5590704;31;34843;-73
2022/11/26 05:56:15;;;;;;;;;;;;;;;1.84;100.00;101407.34;5564122;31;34670;-73
2022/11/26 05:59:21;;;;;;;;;;;;;;;1.83;100.00;101415.31;5576454;31;36016;-73
2022/11/26 06:02:27;;;;;;;;;;;;;;;1.96;100.00;101417.13;5590723;31;34593;-74
2022/11/26 06:05:35;;;;;;;;;;;;;;;2.27;100.00;101423.22;5590638;31;34682;-72
2022/11/26 06:08:41;;;;;;;;;;;;;;;2.33;100.00;101426.31;5590565;31;34515;-71
2022/11/26 06:11:52;;;;;;;;;;;;;;;2.16;100.00;101421.22;5590331;31;34954;-72
2022/11/26 06:14:57;;;;;;;;;;;;;;;2.02;100.00;101432.50;5590469;31;34484;-72
2022/11/26 06:18:04;;;;;;;;;;;;;;;2.05;100.00;101432.31;5569738;32;35783;-73
2022/11/26 06:21:09;;;;;;;;;;;;;;;2.12;100.00;101431.03;5571186;32;35152;-73
2022/11/26 06:24:16;;;;;;;;;;;;;;;2.04;100.00;101427.16;5571091;32;34866;-73
2022/11/26 06:27:22;;;;;;;;;;;;;;;2.07;100.00;101440.09;5570687;32;34979;-74
2022/11/26 06:30:29;;;;;;;;;;;;;;;1.99;100.00;101439.66;5570712;32;35099;-73
2022/11/26 06:33:37;;;;;;;;;;;;;;;1.92;100.00;101439.19;5570750;32;34987;-72
2022/11/26 06:36:45;;;;;;;;;;;;;;;1.96;100.00;101445.06;5571099;32;34468;-72
2022/11/26 06:39:52;;;;;;;;;;;;;;;2.02;100.00;101452.59;5570730;32;33886;-73
2022/11/26 06:43:01;;;;;;;;;;;;;;;1.91;100.00;101458.41;5569946;32;35165;-72
2022/11/26 06:46:08;;;;;;;;;;;;;;;1.81;100.00;101454.63;5570093;32;34998;-73
2022/11/26 06:49:14;;;;;;;;;;;;;;;1.87;100.00;101456.91;5570594;32;34962;-73
2022/11/26 06:52:24;;;;;;;;;;;;;;;2.00;100.00;101449.19;5569862;32;34543;-73
2022/11/26 06:55:31;;;;;;;;;;;;;;;2.08;100.00;101458.28;5570009;32;33831;-72
2022/11/26 06:58:39;;;;;;;;;;;;;;;2.10;100.00;101445.12;5569543;32;34299;-72
2022/11/26 07:01:46;;;;;;;;;;;;;;;2.11;100.00;101458.13;5569770;32;34519;-72
2022/11/26 07:04:53;;;;;;;;;;;;;;;2.02;100.00;101465.66;5570520;32;34771;-73
2022/11/26 07:08:00;;;;;;;;;;;;;;;2.00;100.00;101465.75;5570467;32;34717;-73
2022/11/26 07:11:06;;;;;;;;;;;;;;;2.04;100.00;101461.19;5569788;32;35436;-72
2022/11/26 07:14:11;;;;;;;;;;;;;;;2.24;100.00;101468.75;5570358;32;34447;-73
2022/11/26 07:17:16;;;;;;;;;;;;;;;2.37;100.00;101477.56;5569287;32;34518;-72
2022/11/26 07:20:26;;;;;;;;;;;;;;;2.54;100.00;101473.97;5570341;32;34575;-73
2022/11/26 07:23:35;;;;;;;;;;;;;;;2.63;100.00;101469.03;5570297;32;35030;-73
2022/11/26 07:26:42;;;;;;;;;;;;;;;2.71;100.00;101473.81;5570259;32;34870;-72
2022/11/26 07:29:48;;;;;;;;;;;;;;;2.74;100.00;101473.66;5570197;32;35160;-73
2022/11/26 07:32:55;;;;;;;;;;;;;;;2.76;100.00;101476.19;5569526;32;34308;-73
2022/11/26 07:36:01;;;;;;;;;;;;;;;2.91;100.00;101481.34;5570081;32;35367;-72
2022/11/26 07:39:09;;;;;;;;;;;;;;;3.04;100.00;101481.47;5569283;32;35173;-74
2022/11/26 07:42:16;;;;;;;;;;;;;;;3.16;100.00;101485.94;5568986;32;33311;-73
2022/11/26 07:45:24;;;;;;;;;;;;;;;3.42;100.00;101485.19;5570120;32;35111;-73
2022/11/26 07:48:43;;;;;;;;;;;;;;;3.32;100.00;101491.09;5516356;32;35249;-73
2022/11/26 07:51:49;;;;;;;;;;;;;;;3.14;100.00;101479.12;5529290;32;34532;-72
2022/11/26 07:55:00;;;;;;;;;;;;;;;2.95;100.00;101482.84;5529271;32;35224;-72
2022/11/26 07:58:11;;;;;;;;;;;;;;;3.27;100.00;101480.91;5528465;32;34528;-73
2022/11/26 08:01:28;;;;;;;;;;;;;;;3.21;100.00;101490.91;5516451;32;34526;-72
2022/11/26 08:04:34;;;;;;;;;;;;;;;3.26;100.00;101494.94;5529065;32;34366;-73
2022/11/26 08:07:41;;;;;;;;;;;;;;;3.26;100.00;101496.72;5529068;32;34806;-72
2022/11/26 08:10:50;;;;;;;;;;;;;;;3.23;100.00;101500.38;5528934;32;34832;-74
2022/11/26 08:13:59;;;;;;;;;;;;;;;3.32;100.00;101506.84;5528988;32;35094;-73
2022/11/26 08:17:04;;;;;;;;;;;;;;;3.48;100.00;101508.44;5528744;32;34472;-72
2022/11/26 08:20:08;;;;;;;;;;;;;;;3.77;100.00;101509.25;5516179;32;35244;-73
2022/11/26 08:23:16;;;;;;;;;;;;;;;3.69;100.00;101506.25;5528723;32;34283;-73
2022/11/26 08:26:24;;;;;;;;;;;;;;;4.14;100.00;101499.00;5528571;32;34467;-74
2022/11/26 08:29:41;;;;;;;;;;;;;;;4.43;100.00;101490.06;5528528;32;35109;-72
2022/11/26 08:32:47;;;;;;;;;;;;;;;5.11;100.00;101508.22;5516554;32;34263;-73
2022/11/26 08:35:54;;;;;;;;;;;;;;;5.29;100.00;101524.53;5541329;32;34447;-72
2022/11/26 08:39:14;;;;;;;;;;;;;;;5.07;100.00;101536.53;5569126;32;34974;-72
2022/11/26 08:42:21;;;;;;;;;;;;;;;5.02;100.00;101540.44;5568409;32;34801;-72
2022/11/26 08:45:28;;;;;;;;;;;;;;;4.77;100.00;101543.84;5568456;32;34411;-73
2022/11/26 08:48:36;;;;;;;;;;;;;;;4.53;100.00;101537.59;5568768;32;34544;-73
2022/11/26 08:51:43;;;;;;;;;;;;;;;4.35;100.00;101539.66;5555411;32;34419;-72
2022/11/26 08:54:48;;;;;;;;;;;;;;;4.58;100.00;101538.13;5568945;32;34933;-73
2022/11/26 08:57:55;;;;;;;;;;;;;;;4.52;100.00;101541.16;5568859;32;34609;-73
2022/11/26 09:01:09;;;;;;;;;;;;;;;4.79;100.00;101539.34;5568950;32;35005;-72
2022/11/26 09:04:12;;;;;;;;;;;;;;;4.69;100.00;101546.16;5568821;32;34478;-73
2022/11/26 09:07:17;;;;;;;;;;;;;;;4.73;100.00;101552.91;5569438;32;34544;-73
2022/11/26 09:10:22;;;;;;;;;;;;;;;4.68;100.00;101566.34;5570907;32;35047;-73
2022/11/26 09:13:27;;;;;;;;;;;;;;;4.84;100.00;101557.44;5571425;32;34368;-73
2022/11/26 09:16:30;;;;;;;;;;;;;;;4.69;100.00;101565.41;5577163;31;34466;-73
2022/11/26 09:19:34;;;;;;;;;;;;;;;4.77;100.00;101573.63;5576857;31;34887;-73
2022/11/26 09:22:37;;;;;;;;;;;;;;;4.84;100.00;101565.34;5590942;31;35178;-73
2022/11/26 09:25:40;;;;;;;;;;;;;;;4.91;100.00;101564.81;5590874;31;35213;-72
2022/11/26 09:28:43;;;;;;;;;;;;;;;5.08;100.00;101567.12;5590687;31;35192;-73
2022/11/26 09:31:47;;;;;;;;;;;;;;;4.99;100.00;101574.81;5590735;31;34596;-73
2022/11/26 09:35:12;;;;;;;;;;;;;;;4.71;100.00;101576.66;5591121;31;35041;-73
2022/11/26 09:38:17;;;;;;;;;;;;;;;5.11;100.00;101572.22;5590666;31;34605;-72
2022/11/26 09:41:21;;;;;;;;;;;;;;;4.88;100.00;101572.91;5591032;31;34465;-72
2022/11/26 09:44:26;;;;;;;;;;;;;;;5.13;100.00;101572.94;5590677;31;34648;-72
2022/11/26 09:47:38;;;;;;;;;;;;;;;5.02;100.00;101578.09;5590608;31;35187;-72
2022/11/26 09:50:45;;;;;;;;;;;;;;;4.99;100.00;101580.06;5590579;31;35133;-71
2022/11/26 09:53:49;;;;;;;;;;;;;;;5.28;100.00;101584.19;5576440;31;34776;-73
2022/11/26 09:56:55;;;;;;;;;;;;;;;5.12;100.00;101580.94;5590286;31;34406;-73
2022/11/26 09:59:59;;;;;;;;;;;;;;;5.23;100.00;101574.00;5590151;31;35010;-72
2022/11/26 10:03:09;;;;;;;;;;;;;;;5.51;100.00;101567.69;5576271;31;34546;-72
2022/11/26 10:06:24;;;;;;;;;;;;;;;5.52;100.00;101577.25;5590340;31;34743;-73
2022/11/26 10:09:46;;;;;;;;;;;;;;;5.51;100.00;101575.59;5576891;31;35114;-72
2022/11/26 10:13:05;;;;;;;;;;;;;;;5.87;100.00;101569.56;5589680;31;34518;-72
2022/11/26 10:16:37;;;;;;;;;;;;;;;5.73;100.00;101567.03;5590062;31;35136;-72
2022/11/26 10:19:46;;;;;;;;;;;;;;;5.97;100.00;101572.37;5589457;31;34615;-71
2022/11/26 10:22:53;;;;;;;;;;;;;;;6.08;100.00;101568.03;5590077;31;34491;-72
2022/11/26 10:26:14;;;;;;;;;;;;;;;6.33;100.00;101567.12;5575775;31;33935;-73
2022/11/26 10:29:33;;;;;;;;;;;;;;;6.68;100.00;101569.78;5589864;31;35164;-73
2022/11/26 10:32:41;;;;;;;;;;;;;;;7.22;100.00;101574.50;5590285;31;34963;-72
2022/11/26 10:35:49;;;;;;;;;;;;;;;6.58;100.00;101579.34;5575821;31;32843;-72
2022/11/26 10:38:56;;;;;;;;;;;;;;;6.90;100.00;101575.16;5575994;31;35243;-72
2022/11/26 10:42:10;;;;;;;;;;;;;;;7.35;100.00;101580.53;5589954;31;34993;-74
2022/11/26 10:45:19;;;;;;;;;;;;;;;6.88;100.00;101577.03;5576000;31;34433;-72
2022/11/26 10:48:27;;;;;;;;;;;;;;;7.20;100.00;101585.19;5576847;31;34635;-72
2022/11/26 10:51:36;;;;;;;;;;;;;;;7.40;100.00;101573.09;5590146;31;35079;-72
2022/11/26 10:54:43;;;;;;;;;;;;;;;7.50;100.00;101571.44;5563255;31;35800;-72
2022/11/26 10:58:04;;;;;;;;;;;;;;;7.40;100.00;101570.47;5575850;31;34778;-72
2022/11/26 11:01:13;;;;;;;;;;;;;;;7.27;100.00;101575.84;5589942;31;35235;-72
2022/11/26 11:04:23;;;;;;;;;;;;;;;7.39;100.00;101568.78;5589926;31;34852;-73
2022/11/26 11:07:32;;;;;;;;;;;;;;;7.62;100.00;101570.47;5589811;31;35250;-72
2022/11/26 11:10:57;;;;;;;;;;;;;;;7.42;100.00;101574.66;5589819;31;34591;-72
2022/11/26 11:14:01;;;;;;;;;;;;;;;7.29;100.00;101567.81;5589915;31;34529;-72
2022/11/26 11:17:22;;;;;;;;;;;;;;;7.30;100.00;101564.22;5589598;31;35183;-72
2022/11/26 11:20:28;;;;;;;;;;;;;;;7.04;100.00;101557.44;5576154;31;34419;-72
2022/11/26 11:23:35;;;;;;;;;;;;;;;7.09;100.00;101560.56;5589718;31;34262;-72
2022/11/26 11:27:02;;;;;;;;;;;;;;;7.09;100.00;101553.50;5578818;31;35219;-73
2022/11/26 11:30:24;;;;;;;;;;;;;;;7.50;100.00;101547.69;5589526;31;35094;-72
2022/11/26 11:33:29;;;;;;;;;;;;;;;7.84;100.00;101551.16;5589677;31;34607;-72
2022/11/26 11:36:35;;;;;;;;;;;;;;;8.18;100.00;101547.47;5589588;31;34722;-72
2022/11/26 11:39:43;;;;;;;;;;;;;;;8.14;100.00;101543.38;5575694;31;36067;-71
2022/11/26 11:42:59;;;;;;;;;;;;;;;7.92;100.00;101543.44;5589828;31;34453;-72
2022/11/26 11:46:16;;;;;;;;;;;;;;;7.58;100.00;101542.63;5575669;31;34208;-72
2022/11/26 11:49:44;;;;;;;;;;;;;;;7.65;100.00;101549.09;5589411;31;34430;-72
2022/11/26 11:53:08;;;;;;;;;;;;;;;7.82;100.00;101551.25;5575974;31;35108;-71
2022/11/26 11:56:44;;;;;;;;;;;;;;;7.91;100.00;101543.56;5562565;31;34883;-73
2022/11/26 12:00:09;;;;;;;;;;;;;;;7.71;100.00;101550.41;5564301;31;34766;-70
2022/11/26 12:03:35;;;;;;;;;;;;;;;7.84;100.00;101543.22;5589556;31;34963;-72
2022/11/26 12:07:00;;;;;;;;;;;;;;;7.81;100.00;101554.00;5575558;31;34533;-72
2022/11/26 12:10:13;;;;;;;;;;;;;;;7.83;100.00;101552.09;5589227;31;35117;-72
2022/11/26 12:13:20;;;;;;;;;;;;;;;7.93;100.00;101544.28;5589351;31;35194;-72
2022/11/26 12:16:29;;;;;;;;;;;;;;;7.82;100.00;101548.63;5539692;31;1124721;-72
2022/11/26 12:19:45;;;;;;;;;;;;;;;7.45;100.00;101541.91;5589064;31;35145;-72
2022/11/26 12:22:57;;;;;;;;;;;;;;;7.52;100.00;101539.63;5589192;31;35120;-72
2022/11/26 12:26:12;;;;;;;;;;;;;;;7.41;100.00;101538.66;5574912;31;34745;-72
2022/11/26 12:29:20;;;;;;;;;;;;;;;7.38;100.00;101538.91;5575171;31;35381;-72
2022/11/26 12:32:35;;;;;;;;;;;;;;;7.24;100.00;101541.75;5575819;31;35212;-72
2022/11/26 12:35:51;;;;;;;;;;;;;;;6.90;100.00;101542.66;5589008;31;34995;-72
2022/11/26 12:38:58;;;;;;;;;;;;;;;6.95;100.00;101544.00;5589145;31;34517;-72
2022/11/26 12:42:04;;;;;;;;;;;;;;;7.20;100.00;101555.31;5589017;31;34545;-72
2022/11/26 12:45:21;;;;;;;;;;;;;;;6.93;100.00;101548.53;5591265;31;34831;-74
2022/11/26 12:48:46;;;;;;;;;;;;;;;7.00;100.00;101543.62;5591213;31;34959;-73
2022/11/26 12:52:12;;;;;;;;;;;;;;;7.17;100.00;101551.09;5591141;31;35103;-73
2022/11/26 12:55:22;;;;;;;;;;;;;;;7.04;100.00;101544.25;5591155;31;35089;-73
2022/11/26 12:58:45;;;;;;;;;;;;;;;7.05;100.00;101551.19;5591032;31;35009;-73
2022/11/26 13:01:51;;;;;;;;;;;;;;;7.06;100.00;101537.91;5590953;31;35044;-73
2022/11/26 13:04:58;;;;;;;;;;;;;;;6.95;100.00;101537.88;5591074;31;34461;-73
2022/11/26 13:08:07;;;;;;;;;;;;;;;7.12;100.00;101536.56;5576896;31;34769;-73
2022/11/26 13:11:22;;;;;;;;;;;;;;;7.31;100.00;101537.69;5577120;31;34004;-73
2022/11/26 13:14:37;;;;;;;;;;;;;;;7.56;100.00;101539.25;5591073;31;34182;-73
2022/11/26 13:17:49;;;;;;;;;;;;;;;7.56;100.00;101538.41;5590943;31;35106;-73
2022/11/26 13:20:58;;;;;;;;;;;;;;;7.35;100.00;101543.59;5590741;31;34551;-72
2022/11/26 13:24:07;;;;;;;;;;;;;;;7.18;100.00;101542.22;5590506;31;35199;-73
2022/11/26 13:27:28;;;;;;;;;;;;;;;7.16;100.00;101551.22;5590525;31;35196;-72
2022/11/26 13:30:47;;;;;;;;;;;;;;;7.04;100.00;101545.09;5590910;31;35000;-73
2022/11/26 13:34:02;;;;;;;;;;;;;;;6.93;100.00;101550.31;5590822;31;34759;-72
2022/11/26 13:37:14;;;;;;;;;;;;;;;6.86;100.00;101539.41;5590857;31;34898;-73
2022/11/26 13:40:26;;;;;;;;;;;;;;;6.94;100.00;101544.09;5590827;31;34528;-72
2022/11/26 13:43:35;;;;;;;;;;;;;;;6.94;100.00;101542.31;5590847;31;34525;-73
2022/11/26 13:46:49;;;;;;;;;;;;;;;6.75;100.00;101546.44;5576680;31;33833;-73
2022/11/26 13:50:02;;;;;;;;;;;;;;;6.45;100.00;101553.03;5590677;31;34594;-73
2022/11/26 13:53:18;;;;;;;;;;;;;;;6.33;100.00;101553.94;5590304;31;35125;-74
2022/11/26 13:56:31;;;;;;;;;;;;;;;6.10;100.00;101560.00;5590333;31;34372;-74
2022/11/26 13:59:44;;;;;;;;;;;;;;;5.85;100.00;101560.91;5576983;31;34533;-73
2022/11/26 14:02:50;;;;;;;;;;;;;;;5.84;100.00;101564.50;5590514;31;34882;-74
2022/11/26 14:06:00;;;;;;;;;;;;;;;5.82;100.00;101569.00;5590583;31;34509;-74
2022/11/26 14:09:31;;;;;;;;;;;;;;;5.88;100.00;101568.63;5590102;31;35231;-75
2022/11/26 14:13:00;;;;;;;;;;;;;;;5.95;100.00;101569.88;5590097;31;34423;-74
2022/11/26 14:16:09;;;;;;;;;;;;;;;5.86;100.00;101564.34;5571846;31;34473;-73
2022/11/26 14:19:17;;;;;;;;;;;;;;;5.77;100.00;101560.59;5590250;31;34672;-73
2022/11/26 14:22:32;;;;;;;;;;;;;;;5.87;100.00;101561.66;5590269;31;35198;-73
2022/11/26 14:25:41;;;;;;;;;;;;;;;5.86;100.00;101562.56;5590348;31;34934;-73
2022/11/26 14:28:49;;;;;;;;;;;;;;;5.81;100.00;101558.59;5576055;31;35435;-73
2022/11/26 14:31:57;;;;;;;;;;;;;;;5.73;100.00;101563.53;5590355;31;34388;-73
2022/11/26 14:35:16;;;;;;;;;;;;;;;5.68;100.00;101558.59;5589932;31;34493;-72
2022/11/26 14:38:25;;;;;;;;;;;;;;;5.63;100.00;101553.66;5589967;31;35023;-74
2022/11/26 14:41:43;;;;;;;;;;;;;;;5.62;100.00;101569.56;5590184;31;35140;-73
2022/11/26 14:45:00;;;;;;;;;;;;;;;5.62;100.00;101562.50;5576271;31;34346;-74
2022/11/26 14:48:14;;;;;;;;;;;;;;;5.73;100.00;101568.81;5576041;31;34586;-74
2022/11/26 14:51:22;;;;;;;;;;;;;;;5.70;100.00;101564.63;5590030;31;35152;-74
2022/11/26 14:54:32;;;;;;;;;;;;;;;5.68;100.00;101569.13;5590089;31;34506;-73
2022/11/26 14:57:41;;;;;;;;;;;;;;;5.68;100.00;101577.03;5590078;31;34871;-73
2022/11/26 15:01:01;;;;;;;;;;;;;;;5.73;100.00;101572.28;5590024;31;34539;-73
2022/11/26 15:04:06;;;;;;;;;;;;;;;5.69;100.00;101587.47;5575935;31;35117;-73
2022/11/26 15:07:25;;;;;;;;;;;;;;;5.62;100.00;101587.97;5589863;31;35314;-73
2022/11/26 15:10:40;;;;;;;;;;;;;;;5.59;100.00;101591.69;5589631;31;35205;-73
2022/11/26 15:13:48;;;;;;;;;;;;;;;5.43;100.00;101588.41;5575727;31;33065;-72
2022/11/26 15:16:58;;;;;;;;;;;;;;;5.43;100.00;101596.31;5575593;31;35128;-72
2022/11/26 15:20:06;;;;;;;;;;;;;;;5.39;100.00;101596.63;5589714;31;35213;-72
2022/11/26 15:23:12;;;;;;;;;;;;;;;5.34;100.00;101596.94;5589628;31;34582;-73
2022/11/26 15:26:32;;;;;;;;;;;;;;;5.20;100.00;101594.41;5589333;31;35205;-73
2022/11/26 15:29:41;;;;;;;;;;;;;;;5.07;100.00;101590.94;5589444;31;35003;-73
2022/11/26 15:32:55;;;;;;;;;;;;;;;5.05;100.00;101595.44;5589320;31;35145;-72
2022/11/26 15:36:03;;;;;;;;;;;;;;;4.98;100.00;101589.75;5589774;31;34579;-73
2022/11/26 15:39:22;;;;;;;;;;;;;;;4.89;100.00;101595.59;5589703;31;35147;-72
2022/11/26 15:42:31;;;;;;;;;;;;;;;4.85;100.00;101593.28;5589353;31;34579;-75
2022/11/26 15:45:39;;;;;;;;;;;;;;;4.77;100.00;101596.44;5575440;31;35865;-72
2022/11/26 15:48:53;;;;;;;;;;;;;;;4.75;100.00;101599.16;5589659;31;34574;-71
2022/11/26 15:52:03;;;;;;;;;;;;;;;4.68;100.00;101597.88;5589652;31;34451;-72
2022/11/26 15:55:15;;;;;;;;;;;;;;;4.69;100.00;101606.63;5575962;31;35215;-72
2022/11/26 15:58:28;;;;;;;;;;;;;;;4.52;100.00;101601.59;5589340;31;34653;-75
2022/11/26 16:01:34;;;;;;;;;;;;;;;4.53;100.00;101595.41;5589306;31;35080;-72
2022/11/26 16:04:59;;;;;;;;;;;;;;;4.47;100.00;101598.41;5589086;31;35183;-72
2022/11/26 16:08:21;;;;;;;;;;;;;;;4.37;100.00;101595.53;5575968;31;34457;-72
2022/11/26 16:11:30;;;;;;;;;;;;;;;4.36;100.00;101607.00;5588851;31;35123;-73
2022/11/26 16:14:38;;;;;;;;;;;;;;;4.45;100.00;101592.44;5589293;31;35012;-73